Sea Dolphin C — V7XL9 — position and weather

sailwx.info

Track history (hours):
 
Tides and Currents Weather Stations Pressure Air Temp Water Temp Dewpoint Dewpoint Depression Visibility Wind Speed Wind Dir Waves Ship Positions

Sea Dolphin C

Last reported at 2016-Jul-29 14:24 UTC. Time now 2016-Jul-30 11:11 UTC.
Position N 57°45' E 009°54'.

Length 181 m; draft 10 m.

Type: Cargo ship. MMSI: 538004513.

Date/timePositionNaut miles runAvg speedWind from/ knotsBaromVisibWave heightAir tempDewpointWater temp
2016-Jul-29 14:24N 57°45' E 009°54'2110.9
2016-Jul-29 12:26N 57°49' E 010°33'8 9.2
2016-Jul-29 11:33N 57°45' E 010°46'6 4.9
2016-Jul-29 10:23N 57°39' E 010°47'911.2
2016-Jul-29 09:34N 57°35' E 011°03'1211.8
2016-Jul-29 08:33N 57°30' E 011°23'1211.8
2016-Jul-29 07:34N 57°19' E 011°32'1212.1
2016-Jul-29 06:34N 57°08' E 011°39'1212.1
2016-Jul-29 05:33N 56°56' E 011°47'1111.3
2016-Jul-29 04:33N 56°46' E 011°53'3511.4
2016-Jul-29 01:31N 56°22' E 011°07'1111.5
2016-Jul-29 00:31N 56°11' E 011°06'1211.6
2016-Jul-28 23:29N 55°59' E 011°03'1111.8
2016-Jul-28 22:32N 55°50' E 010°50'3210.8
2016-Jul-28 19:33N 55°19' E 011°02'9 8.8
2016-Jul-28 18:34N 55°10' E 011°01'1110.8
2016-Jul-28 17:34N 54°59' E 010°58'1110.8
2016-Jul-28 16:34N 54°50' E 010°50'9 9.5
2016-Jul-28 15:34N 54°40' E 010°49'1110.8
2016-Jul-28 14:34N 54°36' E 011°06'1111.5
2016-Jul-28 13:34N 54°32' E 011°25'1111.5
2016-Jul-28 12:34N 54°27' E 011°43'1111.0
2016-Jul-28 11:34N 54°26' E 012°02'9 8.9
2016-Jul-28 10:34N 54°32' E 012°14'1110.9
2016-Jul-28 09:33N 54°41' E 012°25'5611.2
2016-Jul-28 04:33N 55°02' E 013°55'1110.7
2016-Jul-28 03:33N 55°09' E 014°09'1110.7
2016-Jul-28 02:34N 55°17' E 014°21'1111.3
2016-Jul-28 01:33N 55°25' E 014°34'1111.2
2016-Jul-28 00:33N 55°31' E 014°51'1111.2
2016-Jul-27 23:33N 55°36' E 015°09'1110.9
2016-Jul-27 22:33N 55°40' E 015°27'1411.0
2016-Jul-27 21:19N 55°43' E 015°51'1111.5
2016-Jul-27 20:22N 55°46' E 016°09'3511.7
2016-Jul-27 17:23N 55°55' E 017°10'1011.7
2016-Jul-27 16:30N 55°57' E 017°28'23911.2
2016-Jul-26 19:09N 59°12' E 021°46'711.5
2016-Jul-26 18:30N 59°17' E 021°58'1111.4
2016-Jul-26 17:34N 59°24' E 022°14'1211.3
2016-Jul-26 16:32N 59°30' E 022°33'1111.4
2016-Jul-26 15:33N 59°34' E 022°53'1111.5
2016-Jul-26 14:33N 59°37' E 023°15'1111.5
2016-Jul-26 13:34N 59°40' E 023°37'1211.7
2016-Jul-26 12:33N 59°44' E 023°59'1211.6
2016-Jul-26 11:33N 59°46' E 024°22'1211.6
2016-Jul-26 10:33N 59°49' E 024°44'3711.4
2016-Jul-26 07:21N 59°56' E 025°55'1011.5
2016-Jul-26 06:30N 59°59' E 026°15'1111.4
2016-Jul-26 05:34N 60°01' E 026°35'1111.4
2016-Jul-26 04:33N 59°60' E 026°58'1111.3
2016-Jul-26 03:33N 60°04' E 027°19'1211.7
2016-Jul-26 02:33N 60°10' E 027°39'1110.6
2016-Jul-26 01:33N 60°10' E 028°00'1111.3
2016-Jul-26 00:33N 60°06' E 028°21'1111.1
2016-Jul-25 23:33N 60°03' E 028°42'1111.4
2016-Jul-25 22:33N 60°02' E 029°05'1110.8
2016-Jul-25 21:32N 60°01' E 029°27'10 9.9
2016-Jul-25 20:33N 59°59' E 029°46'1010.0
2016-Jul-25 19:33N 59°54' E 030°04'4 3.8
2016-Jul-25 18:31N 59°53' E 030°11'0 0.0
2016-Jul-25 17:28N 59°53' E 030°11'0 0.0
2016-Jul-25 16:31N 59°53' E 030°11'0 0.0
2016-Jul-25 15:31N 59°53' E 030°11'0 0.0
2016-Jul-25 14:31N 59°53' E 030°11'0 0.0
2016-Jul-25 13:31N 59°53' E 030°11'0 0.0
2016-Jul-25 12:31N 59°53' E 030°11'0 0.0
2016-Jul-25 11:31N 59°53' E 030°11'0 0.0
2016-Jul-25 10:28N 59°53' E 030°11'0 0.0
2016-Jul-25 09:31N 59°53' E 030°11'0 0.0
2016-Jul-25 08:31N 59°53' E 030°11'0 0.0
2016-Jul-25 07:31N 59°53' E 030°11'0 0.0
2016-Jul-25 06:31N 59°53' E 030°11'0 0.0
2016-Jul-25 05:28N 59°53' E 030°11'0 0.0
2016-Jul-25 04:31N 59°53' E 030°11'0 0.0
2016-Jul-25 03:31N 59°53' E 030°11'0 0.0
2016-Jul-25 02:31N 59°53' E 030°11'0 0.0
2016-Jul-25 01:31N 59°53' E 030°11'0 0.0
2016-Jul-25 00:31N 59°53' E 030°11'0 0.0
2016-Jul-24 23:28N 59°53' E 030°11'0 0.0
2016-Jul-24 22:31N 59°53' E 030°11'0 0.0
2016-Jul-24 21:31N 59°53' E 030°11'0 0.0
2016-Jul-24 20:31N 59°53' E 030°11'0 0.0
2016-Jul-24 19:31N 59°53' E 030°11'0 0.0
2016-Jul-24 18:28N 59°53' E 030°11'0 0.0
2016-Jul-24 17:31N 59°53' E 030°11'0 0.0
2016-Jul-24 16:31N 59°53' E 030°11'0 0.0
2016-Jul-24 15:31N 59°53' E 030°11'0 0.0
2016-Jul-24 14:31N 59°53' E 030°11'0 0.0
2016-Jul-24 13:31N 59°53' E 030°11'0 0.0
2016-Jul-24 12:31N 59°53' E 030°11'0 0.0
2016-Jul-24 11:31N 59°53' E 030°11'0 0.0
2016-Jul-24 10:31N 59°53' E 030°11'0 0.0
2016-Jul-24 09:31N 59°53' E 030°11'0 0.0
2016-Jul-24 08:31N 59°53' E 030°11'0 0.5
2016-Jul-24 07:33N 59°53' E 030°11'9 9.2
2016-Jul-24 06:33N 59°57' E 029°53'1111.3
2016-Jul-24 05:33N 60°01' E 029°33'10 9.0
2016-Jul-24 04:27N 60°02' E 029°13'1111.7
2016-Jul-24 03:33N 60°02' E 028°52'1111.5
2016-Jul-24 02:33N 60°03' E 028°29'1110.5
2016-Jul-24 01:33N 60°08' E 028°11'1110.8
2016-Jul-24 00:33N 60°10' E 027°50'1010.2
2016-Jul-23 23:33N 60°06' E 027°31'1110.5
2016-Jul-23 22:33N 60°01' E 027°13'1010.1
2016-Jul-23 21:33N 59°59' E 026°53'1010.5
2016-Jul-23 20:33N 59°59' E 026°32'1110.3
2016-Jul-23 19:31N 59°55' E 026°12'3410.6
2016-Jul-23 16:15N 59°48' E 025°05'710.6
2016-Jul-23 15:33N 59°46' E 024°51'1010.5
2016-Jul-23 14:33N 59°44' E 024°30'1110.3
2016-Jul-23 13:31N 59°41' E 024°10'1110.5
2016-Jul-23 12:30N 59°37' E 023°50'1010.3
2016-Jul-23 11:33N 59°34' E 023°32'1110.6
2016-Jul-23 10:33N 59°31' E 023°12'33311.1
2016-Jul-22 04:33N 55°36' E 015°51'1212.6
2016-Jul-22 03:34N 55°32' E 015°30'1312.6
2016-Jul-22 02:33N 55°29' E 015°09'1312.5
2016-Jul-22 01:34N 55°25' E 014°47'1212.1
2016-Jul-22 00:33N 55°18' E 014°30'1211.9
2016-Jul-21 23:33N 55°11' E 014°14'1212.4
2016-Jul-21 22:33N 55°10' E 013°52'1312.5
2016-Jul-21 21:33N 55°11' E 013°30'1312.8
2016-Jul-21 20:33N 55°12' E 013°08'1212.4
2016-Jul-21 19:33N 55°16' E 012°47'1010.2
2016-Jul-21 18:34N 55°25' E 012°39'1111.2
2016-Jul-21 17:33N 55°36' E 012°42'1110.5
2016-Jul-21 16:33N 55°46' E 012°41'1111.2
2016-Jul-21 15:33N 55°57' E 012°38'9 9.3
2016-Jul-21 14:33N 56°06' E 012°33'1111.1
2016-Jul-21 13:33N 56°13' E 012°16'1211.9
2016-Jul-21 12:33N 56°22' E 012°02'1312.7
2016-Jul-21 11:33N 56°34' E 011°56'1312.8
2016-Jul-21 10:33N 56°46' E 011°52'1312.5
2016-Jul-21 09:33N 56°58' E 011°44'1312.8
2016-Jul-21 08:33N 57°10' E 011°36'1212.3
2016-Jul-21 07:33N 57°22' E 011°36'1211.9
2016-Jul-21 06:33N 57°34' E 011°40'2 2.0
2016-Jul-21 05:33N 57°36' E 011°42'0 0.0
2016-Jul-21 04:33N 57°36' E 011°42'5 5.3
2016-Jul-21 03:33N 57°37' E 011°32'1111.4
2016-Jul-21 02:33N 57°42' E 011°14'1211.8
2016-Jul-21 01:34N 57°49' E 010°55'1111.4
2016-Jul-21 00:33N 57°52' E 010°35'1212.1
2016-Jul-20 23:33N 57°51' E 010°12'1111.5
2016-Jul-20 22:33N 57°46' E 009°52'1211.8
2016-Jul-20 21:33N 57°41' E 009°32'1211.7
2016-Jul-20 20:33N 57°37' E 009°12'1211.7
2016-Jul-20 19:32N 57°31' E 008°52'1111.4
2016-Jul-20 18:33N 57°26' E 008°34'1211.4
2016-Jul-20 17:32N 57°22' E 008°14'10311.3
2016-Jul-20 08:26N 55°59' E 006°21'10012.0
2016-Jul-20 00:05N 54°31' E 004°57'611.9
2016-Jul-19 23:33N 54°25' E 004°53'1211.9
2016-Jul-19 22:33N 54°14' E 004°46'1212.1
2016-Jul-19 21:33N 54°03' E 004°39'1211.8
2016-Jul-19 20:33N 53°52' E 004°30'1512.0
2016-Jul-19 19:17N 53°42' E 004°11'912.0
2016-Jul-19 18:33N 53°37' E 003°59'2613.0
2016-Jul-19 16:33N 53°15' E 003°34'1413.8
2016-Jul-19 15:32N 53°02' E 003°25'1513.9
2016-Jul-19 14:27N 52°48' E 003°19'  
Track history (hours):
 
Tides and Currents Weather Stations Pressure Air Temp Water Temp Dewpoint Dewpoint Depression Visibility Wind Speed Wind Dir Waves Ship Positions

Sea Dolphin C

Last reported at 2016-Jul-29 14:24 UTC. Time now 2016-Jul-30 11:11 UTC.
Position N 57°45' E 009°54'.

Length 181 m; draft 10 m.

Type: Cargo ship. MMSI: 538004513.

Date/timePositionNaut miles runAvg speedWind from/ knotsBaromVisibWave heightAir tempDewpointWater temp
2016-Jul-29 14:24N 57°45' E 009°54'2110.9
2016-Jul-29 12:26N 57°49' E 010°33'8 9.2
2016-Jul-29 11:33N 57°45' E 010°46'6 4.9
2016-Jul-29 10:23N 57°39' E 010°47'911.2
2016-Jul-29 09:34N 57°35' E 011°03'1211.8
2016-Jul-29 08:33N 57°30' E 011°23'1211.8
2016-Jul-29 07:34N 57°19' E 011°32'1212.1
2016-Jul-29 06:34N 57°08' E 011°39'1212.1
2016-Jul-29 05:33N 56°56' E 011°47'1111.3
2016-Jul-29 04:33N 56°46' E 011°53'3511.4
2016-Jul-29 01:31N 56°22' E 011°07'1111.5
2016-Jul-29 00:31N 56°11' E 011°06'1211.6
2016-Jul-28 23:29N 55°59' E 011°03'1111.8
2016-Jul-28 22:32N 55°50' E 010°50'3210.8
2016-Jul-28 19:33N 55°19' E 011°02'9 8.8
2016-Jul-28 18:34N 55°10' E 011°01'1110.8
2016-Jul-28 17:34N 54°59' E 010°58'1110.8
2016-Jul-28 16:34N 54°50' E 010°50'9 9.5
2016-Jul-28 15:34N 54°40' E 010°49'1110.8
2016-Jul-28 14:34N 54°36' E 011°06'1111.5
2016-Jul-28 13:34N 54°32' E 011°25'1111.5
2016-Jul-28 12:34N 54°27' E 011°43'1111.0
2016-Jul-28 11:34N 54°26' E 012°02'9 8.9
2016-Jul-28 10:34N 54°32' E 012°14'1110.9
2016-Jul-28 09:33N 54°41' E 012°25'5611.2
2016-Jul-28 04:33N 55°02' E 013°55'1110.7
2016-Jul-28 03:33N 55°09' E 014°09'1110.7
2016-Jul-28 02:34N 55°17' E 014°21'1111.3
2016-Jul-28 01:33N 55°25' E 014°34'1111.2
2016-Jul-28 00:33N 55°31' E 014°51'1111.2
2016-Jul-27 23:33N 55°36' E 015°09'1110.9
2016-Jul-27 22:33N 55°40' E 015°27'1411.0
2016-Jul-27 21:19N 55°43' E 015°51'1111.5
2016-Jul-27 20:22N 55°46' E 016°09'3511.7
2016-Jul-27 17:23N 55°55' E 017°10'1011.7
2016-Jul-27 16:30N 55°57' E 017°28'23911.2
2016-Jul-26 19:09N 59°12' E 021°46'711.5
2016-Jul-26 18:30N 59°17' E 021°58'1111.4
2016-Jul-26 17:34N 59°24' E 022°14'1211.3
2016-Jul-26 16:32N 59°30' E 022°33'1111.4
2016-Jul-26 15:33N 59°34' E 022°53'1111.5
2016-Jul-26 14:33N 59°37' E 023°15'1111.5
2016-Jul-26 13:34N 59°40' E 023°37'1211.7
2016-Jul-26 12:33N 59°44' E 023°59'1211.6
2016-Jul-26 11:33N 59°46' E 024°22'1211.6
2016-Jul-26 10:33N 59°49' E 024°44'3711.4
2016-Jul-26 07:21N 59°56' E 025°55'1011.5
2016-Jul-26 06:30N 59°59' E 026°15'1111.4
2016-Jul-26 05:34N 60°01' E 026°35'1111.4
2016-Jul-26 04:33N 59°60' E 026°58'1111.3
2016-Jul-26 03:33N 60°04' E 027°19'1211.7
2016-Jul-26 02:33N 60°10' E 027°39'1110.6
2016-Jul-26 01:33N 60°10' E 028°00'1111.3
2016-Jul-26 00:33N 60°06' E 028°21'1111.1
2016-Jul-25 23:33N 60°03' E 028°42'1111.4
2016-Jul-25 22:33N 60°02' E 029°05'1110.8
2016-Jul-25 21:32N 60°01' E 029°27'10 9.9
2016-Jul-25 20:33N 59°59' E 029°46'1010.0
2016-Jul-25 19:33N 59°54' E 030°04'4 3.8
2016-Jul-25 18:31N 59°53' E 030°11'0 0.0
2016-Jul-25 17:28N 59°53' E 030°11'0 0.0
2016-Jul-25 16:31N 59°53' E 030°11'0 0.0
2016-Jul-25 15:31N 59°53' E 030°11'0 0.0
2016-Jul-25 14:31N 59°53' E 030°11'0 0.0
2016-Jul-25 13:31N 59°53' E 030°11'0 0.0
2016-Jul-25 12:31N 59°53' E 030°11'0 0.0
2016-Jul-25 11:31N 59°53' E 030°11'0 0.0
2016-Jul-25 10:28N 59°53' E 030°11'0 0.0
2016-Jul-25 09:31N 59°53' E 030°11'0 0.0
2016-Jul-25 08:31N 59°53' E 030°11'0 0.0
2016-Jul-25 07:31N 59°53' E 030°11'0 0.0
2016-Jul-25 06:31N 59°53' E 030°11'0 0.0
2016-Jul-25 05:28N 59°53' E 030°11'0 0.0
2016-Jul-25 04:31N 59°53' E 030°11'0 0.0
2016-Jul-25 03:31N 59°53' E 030°11'0 0.0
2016-Jul-25 02:31N 59°53' E 030°11'0 0.0
2016-Jul-25 01:31N 59°53' E 030°11'0 0.0
2016-Jul-25 00:31N 59°53' E 030°11'0 0.0
2016-Jul-24 23:28N 59°53' E 030°11'0 0.0
2016-Jul-24 22:31N 59°53' E 030°11'0 0.0
2016-Jul-24 21:31N 59°53' E 030°11'0 0.0
2016-Jul-24 20:31N 59°53' E 030°11'0 0.0
2016-Jul-24 19:31N 59°53' E 030°11'0 0.0
2016-Jul-24 18:28N 59°53' E 030°11'0 0.0
2016-Jul-24 17:31N 59°53' E 030°11'0 0.0
2016-Jul-24 16:31N 59°53' E 030°11'0 0.0
2016-Jul-24 15:31N 59°53' E 030°11'0 0.0
2016-Jul-24 14:31N 59°53' E 030°11'0 0.0
2016-Jul-24 13:31N 59°53' E 030°11'0 0.0
2016-Jul-24 12:31N 59°53' E 030°11'0 0.0
2016-Jul-24 11:31N 59°53' E 030°11'0 0.0
2016-Jul-24 10:31N 59°53' E 030°11'0 0.0
2016-Jul-24 09:31N 59°53' E 030°11'0 0.0
2016-Jul-24 08:31N 59°53' E 030°11'0 0.5
2016-Jul-24 07:33N 59°53' E 030°11'9 9.2
2016-Jul-24 06:33N 59°57' E 029°53'1111.3
2016-Jul-24 05:33N 60°01' E 029°33'10 9.0
2016-Jul-24 04:27N 60°02' E 029°13'1111.7
2016-Jul-24 03:33N 60°02' E 028°52'1111.5
2016-Jul-24 02:33N 60°03' E 028°29'1110.5
2016-Jul-24 01:33N 60°08' E 028°11'1110.8
2016-Jul-24 00:33N 60°10' E 027°50'1010.2
2016-Jul-23 23:33N 60°06' E 027°31'1110.5
2016-Jul-23 22:33N 60°01' E 027°13'1010.1
2016-Jul-23 21:33N 59°59' E 026°53'1010.5
2016-Jul-23 20:33N 59°59' E 026°32'1110.3
2016-Jul-23 19:31N 59°55' E 026°12'3410.6
2016-Jul-23 16:15N 59°48' E 025°05'710.6
2016-Jul-23 15:33N 59°46' E 024°51'1010.5
2016-Jul-23 14:33N 59°44' E 024°30'1110.3
2016-Jul-23 13:31N 59°41' E 024°10'1110.5
2016-Jul-23 12:30N 59°37' E 023°50'1010.3
2016-Jul-23 11:33N 59°34' E 023°32'1110.6
2016-Jul-23 10:33N 59°31' E 023°12'33311.1
2016-Jul-22 04:33N 55°36' E 015°51'1212.6
2016-Jul-22 03:34N 55°32' E 015°30'1312.6
2016-Jul-22 02:33N 55°29' E 015°09'1312.5
2016-Jul-22 01:34N 55°25' E 014°47'1212.1
2016-Jul-22 00:33N 55°18' E 014°30'1211.9
2016-Jul-21 23:33N 55°11' E 014°14'1212.4
2016-Jul-21 22:33N 55°10' E 013°52'1312.5
2016-Jul-21 21:33N 55°11' E 013°30'1312.8
2016-Jul-21 20:33N 55°12' E 013°08'1212.4
2016-Jul-21 19:33N 55°16' E 012°47'1010.2
2016-Jul-21 18:34N 55°25' E 012°39'1111.2
2016-Jul-21 17:33N 55°36' E 012°42'1110.5
2016-Jul-21 16:33N 55°46' E 012°41'1111.2
2016-Jul-21 15:33N 55°57' E 012°38'9 9.3
2016-Jul-21 14:33N 56°06' E 012°33'1111.1
2016-Jul-21 13:33N 56°13' E 012°16'1211.9
2016-Jul-21 12:33N 56°22' E 012°02'1312.7
2016-Jul-21 11:33N 56°34' E 011°56'1312.8
2016-Jul-21 10:33N 56°46' E 011°52'1312.5
2016-Jul-21 09:33N 56°58' E 011°44'1312.8
2016-Jul-21 08:33N 57°10' E 011°36'1212.3
2016-Jul-21 07:33N 57°22' E 011°36'1211.9
2016-Jul-21 06:33N 57°34' E 011°40'2 2.0
2016-Jul-21 05:33N 57°36' E 011°42'0 0.0
2016-Jul-21 04:33N 57°36' E 011°42'5 5.3
2016-Jul-21 03:33N 57°37' E 011°32'1111.4
2016-Jul-21 02:33N 57°42' E 011°14'1211.8
2016-Jul-21 01:34N 57°49' E 010°55'1111.4
2016-Jul-21 00:33N 57°52' E 010°35'1212.1
2016-Jul-20 23:33N 57°51' E 010°12'1111.5
2016-Jul-20 22:33N 57°46' E 009°52'1211.8
2016-Jul-20 21:33N 57°41' E 009°32'1211.7
2016-Jul-20 20:33N 57°37' E 009°12'1211.7
2016-Jul-20 19:32N 57°31' E 008°52'1111.4
2016-Jul-20 18:33N 57°26' E 008°34'1211.4
2016-Jul-20 17:32N 57°22' E 008°14'10311.3
2016-Jul-20 08:26N 55°59' E 006°21'10012.0
2016-Jul-20 00:05N 54°31' E 004°57'611.9
2016-Jul-19 23:33N 54°25' E 004°53'1211.9
2016-Jul-19 22:33N 54°14' E 004°46'1212.1
2016-Jul-19 21:33N 54°03' E 004°39'1211.8
2016-Jul-19 20:33N 53°52' E 004°30'1512.0
2016-Jul-19 19:17N 53°42' E 004°11'912.0
2016-Jul-19 18:33N 53°37' E 003°59'2613.0
2016-Jul-19 16:33N 53°15' E 003°34'1413.8
2016-Jul-19 15:32N 53°02' E 003°25'1513.9
2016-Jul-19 14:27N 52°48' E 003°19'  

Dump ship's entire track history